CYCY

Clyde River Airport

Clyde River, Canada
METAR CYCY 101500Z 29005KT 25SM FEW250 M29/M32 A3013 RMK CI2 SLP211
Observed Flight Rules
Dec-10 @ 15:00 UTC (an hour ago) Visual Flight Rules
Wind Visibility Clouds
290° at 5 knots 25 miles
  • Few at 25,000' AGL
Temperatures Readings
Current -29°C / -20°F
Dewpoint -32°C / -26°F
Humidity 75%
Altimeter 30.13" Hg
Pressure 1021.1 hPa
Elevation 26
METAR CYCY 101500Z 29005KT 25SM FEW250 M29/M32 A3013 RMK CI2 SLP211
Observed Flight Rules
Dec-10 @ 15:00 UTC
(an hour ago)
VFR
Wind Visibility
290° at 5 knots 25 miles
Clouds
  • Few at 25,000' AGL
Temperature Dewpoint
-29°C / -20°F -32°C / -26°F
Humidity Altimeter Pressure
75% 30.13" Hg 1021.1 hPa